Time;durP1;ratioP1;P1;durP2;ratioP2;P2;SDS_P1;SDS_P2;PMS_P1;PMS_P2;Temp;Humidity;BMP_temperature;BMP_pressure;BME280_temperature;BME280_humidity;BME280_pressure;Samples;Min_cycle;Max_cycle;Signal;HPM_P1;HPM_P2
2023/01/18 05:30:40;;;;;;;;;16.25;16.25;;;;;4.10;60.30;99228.09;5027299;28;45656;-77
2023/01/18 05:33:07;;;;;;;;;18.75;17.25;;;;;4.08;60.21;99215.84;4995928;28;45229;-76
2023/01/18 05:35:33;;;;;;;;;21.75;18.00;;;;;4.07;60.44;99208.84;4995636;28;45459;-76
2023/01/18 05:37:58;;;;;;;;;13.50;11.25;;;;;3.92;59.87;99178.53;4995882;28;45487;-75
2023/01/18 05:40:24;;;;;;;;;13.25;13.25;;;;;4.26;60.20;99235.38;4995490;28;45383;-77
2023/01/18 05:42:49;;;;;;;;;15.00;15.00;;;;;4.15;59.83;99223.47;4977498;28;45985;-76
2023/01/18 05:45:15;;;;;;;;;20.00;15.50;;;;;4.24;59.76;99247.88;4995505;28;45370;-76
2023/01/18 05:47:40;;;;;;;;;14.25;13.00;;;;;4.21;59.92;99251.50;4995659;28;45830;-76
2023/01/18 05:50:07;;;;;;;;;16.00;13.50;;;;;4.13;59.46;99254.50;4995535;28;45285;-76
2023/01/18 05:52:33;;;;;;;;;14.25;14.25;;;;;4.03;59.30;99241.69;4994893;28;45459;-76
2023/01/18 05:54:58;;;;;;;;;13.25;11.75;;;;;4.15;59.53;99267.69;4995900;28;45487;-76
2023/01/18 05:57:24;;;;;;;;;19.75;16.50;;;;;4.07;59.51;99246.81;4994955;28;45392;-76
2023/01/18 05:59:49;;;;;;;;;17.50;14.00;;;;;4.08;59.52;99247.69;4995153;28;46082;-75
2023/01/18 06:02:15;;;;;;;;;15.25;15.25;;;;;4.07;59.67;99246.81;4994965;28;45214;-75
2023/01/18 06:04:40;;;;;;;;;13.00;13.00;;;;;4.31;59.43;99282.00;4995214;28;45377;-76
2023/01/18 06:07:08;;;;;;;;;20.25;16.00;;;;;4.30;58.97;99274.97;4994818;28;45500;-74
2023/01/18 06:09:33;;;;;;;;;14.50;12.25;;;;;4.30;59.61;99271.47;4995108;28;46068;-76
2023/01/18 06:11:58;;;;;;;;;14.25;14.25;;;;;4.26;59.43;99277.81;4996013;28;45416;-81
2023/01/18 06:14:24;;;;;;;;;17.25;15.25;;;;;4.23;59.00;99285.94;4995448;28;45682;-76
2023/01/18 06:16:49;;;;;;;;;14.25;14.25;;;;;4.19;59.03;99280.75;4998386;28;45372;-77
2023/01/18 06:19:14;;;;;;;;;13.00;12.75;;;;;4.26;59.34;99293.72;4976169;28;48398;-78
2023/01/18 06:21:40;;;;;;;;;16.50;12.50;;;;;4.31;60.05;99305.88;4994791;28;45400;-76
2023/01/18 06:24:05;;;;;;;;;14.00;14.00;;;;;4.29;59.80;99301.56;4994985;28;45494;-79
2023/01/18 06:26:31;;;;;;;;;14.50;14.25;;;;;4.29;59.49;99302.44;4995439;28;45554;-78
2023/01/18 06:28:57;;;;;;;;;16.00;11.50;;;;;4.35;59.42;99312.78;4994365;28;46572;-76
2023/01/18 06:31:22;;;;;;;;;13.50;13.50;;;;;4.19;59.89;99312.56;5001961;28;45492;-77
2023/01/18 06:33:50;;;;;;;;;21.25;19.50;;;;;3.91;59.89;99292.63;4997229;28;45531;-76
2023/01/18 06:36:15;;;;;;;;;16.00;16.00;;;;;4.03;60.43;99323.91;5014492;28;45345;-75
2023/01/18 06:38:40;;;;;;;;;16.00;12.50;;;;;3.94;60.37;99335.75;5014700;28;46052;-77
2023/01/18 06:41:08;;;;;;;;;16.00;14.75;;;;;3.91;60.24;99335.91;5014772;28;45313;-81
2023/01/18 06:43:33;;;;;;;;;16.75;16.75;;;;;3.82;61.09;99335.41;5014355;28;45398;-74
2023/01/18 06:45:58;;;;;;;;;17.00;14.25;;;;;3.66;61.39;99320.09;5001258;28;45263;-80
2023/01/18 06:48:25;;;;;;;;;16.50;16.50;;;;;3.62;62.05;99326.47;5014493;28;45328;-78
2023/01/18 06:50:51;;;;;;;;;15.00;13.00;;;;;3.69;62.03;99341.19;5013232;28;45406;-82
2023/01/18 06:53:19;;;;;;;;;18.00;16.00;;;;;3.87;61.77;99363.44;5016040;28;45534;-77
2023/01/18 06:55:52;;;;;;;;;27.75;20.50;;;;;3.72;62.15;99356.97;5014773;28;45574;-79
2023/01/18 06:58:17;;;;;;;;;22.50;19.50;;;;;3.65;62.12;99341.41;5014775;28;45562;-83
2023/01/18 07:00:42;;;;;;;;;19.75;18.00;;;;;3.75;62.33;99364.78;5015279;28;45459;-80
2023/01/18 07:03:09;;;;;;;;;16.50;16.50;;;;;3.78;62.60;99367.34;5014844;28;45386;-80
2023/01/18 07:05:34;;;;;;;;;19.00;19.00;;;;;3.77;62.36;99355.00;5014534;28;45515;-80
2023/01/18 07:08:00;;;;;;;;;28.25;23.00;;;;;3.89;62.21;99379.28;4996060;28;47506;-76
2023/01/18 07:10:25;;;;;;;;;21.00;20.50;;;;;3.87;61.91;99376.69;4996950;28;45293;-79
2023/01/18 07:12:51;;;;;;;;;26.75;23.75;;;;;3.81;62.16;99387.56;5015436;28;45680;-77
2023/01/18 07:15:16;;;;;;;;;24.75;19.50;;;;;3.78;62.62;99382.38;5015609;28;45414;-78
2023/01/18 07:17:43;;;;;;;;;26.75;24.75;;;;;3.79;62.87;99389.41;5010408;28;48534;-78
2023/01/18 07:20:10;;;;;;;;;20.00;20.00;;;;;3.69;62.50;99380.94;5014889;28;45278;-78
2023/01/18 07:22:35;;;;;;;;;23.50;20.25;;;;;3.74;62.37;99401.97;5015306;28;45315;-78
2023/01/18 07:25:00;;;;;;;;;24.25;22.00;;;;;3.68;62.81;99405.72;5015072;28;45558;-79
2023/01/18 07:27:27;;;;;;;;;33.00;27.00;;;;;3.66;62.66;99414.66;5014532;28;46235;-79
2023/01/18 07:29:53;;;;;;;;;27.00;25.00;;;;;3.45;62.43;99387.22;5017473;28;45424;-80
2023/01/18 07:32:19;;;;;;;;;29.50;26.25;;;;;3.50;63.14;99416.16;5016892;28;45370;-79
2023/01/18 07:34:44;;;;;;;;;30.75;26.50;;;;;3.58;63.31;99424.69;5019474;28;45587;-80
2023/01/18 07:37:10;;;;;;;;;25.50;23.00;;;;;3.62;62.52;99434.25;5018745;28;45477;-79
2023/01/18 07:39:35;;;;;;;;;25.50;25.50;;;;;3.48;63.15;99412.72;5000734;28;45384;-80
2023/01/18 07:42:00;;;;;;;;;24.50;22.75;;;;;3.42;62.63;99400.56;5018440;28;45499;-79
2023/01/18 07:44:26;;;;;;;;;28.25;26.25;;;;;3.48;62.53;99420.69;5017812;28;45301;-78
2023/01/18 07:46:51;;;;;;;;;23.75;22.50;;;;;3.49;62.61;99435.66;5017925;28;46527;-79
2023/01/18 07:49:16;;;;;;;;;26.50;25.00;;;;;3.56;63.00;99445.97;5017245;28;45408;-78
2023/01/18 07:51:42;;;;;;;;;24.75;24.75;;;;;3.62;62.67;99460.75;5000614;28;45322;-78
2023/01/18 07:54:07;;;;;;;;;32.00;24.75;;;;;3.48;63.08;99444.53;5016629;28;45750;-80
2023/01/18 07:56:33;;;;;;;;;17.50;16.75;;;;;3.56;62.81;99463.66;4999576;28;48032;-79
2023/01/18 07:58:58;;;;;;;;;12.75;9.00;;;;;3.45;62.75;99424.31;5017576;28;45452;-79
2023/01/18 08:01:24;;;;;;;;;28.00;23.25;;;;;3.61;62.83;99459.88;5017969;28;45278;-80
2023/01/18 08:03:50;;;;;;;;;24.50;21.50;;;;;3.59;62.95;99463.50;5017713;28;45689;-81
2023/01/18 08:06:20;;;;;;;;;26.50;24.50;;;;;3.51;62.82;99450.56;5017130;28;46971;-78
2023/01/18 08:08:46;;;;;;;;;32.50;26.75;;;;;3.48;63.08;99465.72;5017622;28;45317;-80
2023/01/18 08:11:11;;;;;;;;;26.25;24.25;;;;;3.36;63.33;99462.59;5017695;28;45215;-79
2023/01/18 08:13:37;;;;;;;;;24.75;24.50;;;;;3.48;63.17;99481.63;5017508;28;45340;-80
2023/01/18 08:16:06;;;;;;;;;26.00;23.50;;;;;3.33;63.39;99462.69;5017941;28;45515;-78
2023/01/18 08:18:31;;;;;;;;;27.50;24.00;;;;;3.45;63.48;99479.94;5017331;28;45348;-79
2023/01/18 08:20:57;;;;;;;;;35.25;25.50;;;;;3.43;63.15;99479.13;5017532;28;45329;-78
2023/01/18 08:23:22;;;;;;;;;25.00;24.25;;;;;3.48;63.12;99481.63;5017388;28;45440;-78
2023/01/18 08:25:48;;;;;;;;;26.75;25.50;;;;;3.26;63.02;99444.44;5016540;28;45972;-78
2023/01/18 08:28:14;;;;;;;;;31.25;26.75;;;;;3.42;63.53;99472.97;5017003;28;45345;-78
2023/01/18 08:30:43;;;;;;;;;21.75;21.75;;;;;3.50;63.50;99493.84;5016760;28;45343;-78
2023/01/18 08:33:08;;;;;;;;;27.00;25.33;;;;;3.52;63.48;99501.75;5017071;28;45464;-77
2023/01/18 08:35:40;;;;;;;;;34.67;27.67;;;;;3.57;63.44;99503.34;5016895;28;46244;-78
2023/01/18 08:38:05;;;;;;;;;32.25;26.00;;;;;3.54;63.47;99476.06;5017544;28;45215;-79
2023/01/18 08:40:30;;;;;;;;;30.00;30.00;;;;;3.71;63.12;99511.63;4997942;28;45482;-78
2023/01/18 08:42:58;;;;;;;;;30.67;30.00;;;;;3.69;63.08;99494.91;5016829;28;45427;-79
2023/01/18 08:45:24;;;;;;;;;29.50;28.50;;;;;3.87;62.83;99508.38;5016204;28;46067;-79
2023/01/18 08:47:57;;;;;;;;;25.33;19.33;;;;;3.88;62.07;99505.69;5016812;28;45297;-80
2023/01/18 08:50:23;;;;;;;;;33.50;30.25;;;;;3.82;62.48;99513.00;5016991;28;45650;-80
2023/01/18 08:52:51;;;;;;;;;31.25;24.25;;;;;3.69;62.06;99500.22;5015890;28;45681;-79
2023/01/18 08:55:17;;;;;;;;;30.75;27.00;;;;;3.74;62.55;99502.72;5013174;28;45468;-78
2023/01/18 08:57:42;;;;;;;;;38.00;30.33;;;;;3.84;62.43;99511.13;5014816;28;45589;-77
2023/01/18 09:00:08;;;;;;;;;22.75;21.50;;;;;3.86;62.27;99514.59;5014448;28;45388;-79
2023/01/18 09:02:34;;;;;;;;;28.00;26.00;;;;;3.99;62.25;99545.91;5016173;28;45291;-78
2023/01/18 09:04:59;;;;;;;;;30.33;28.00;;;;;3.91;61.68;99532.09;5016526;28;45423;-78
2023/01/18 09:07:24;;;;;;;;;37.00;30.00;;;;;4.00;61.91;99554.69;5016653;28;45319;-79
2023/01/18 09:09:50;;;;;;;;;30.33;29.67;;;;;3.89;62.42;99555.13;5016651;28;45380;-78
2023/01/18 09:12:15;;;;;;;;;27.00;27.00;;;;;3.94;62.17;99568.19;5016149;28;45586;-78
2023/01/18 09:14:40;;;;;;;;;27.50;26.50;;;;;3.97;61.70;99568.97;5016052;28;45372;-79
2023/01/18 09:17:06;;;;;;;;;21.25;15.50;;;;;3.98;61.33;99576.00;5016831;28;46445;-79
2023/01/18 09:19:31;;;;;;;;;29.50;25.25;;;;;3.91;61.64;99555.94;5016681;28;45510;-79
2023/01/18 09:21:57;;;;;;;;;28.25;27.75;;;;;3.96;61.78;99583.13;5016613;28;45308;-76
2023/01/18 09:24:22;;;;;;;;;33.75;27.50;;;;;3.85;61.96;99565.91;5016423;28;45743;-80
2023/01/18 09:26:52;;;;;;;;;31.75;26.75;;;;;3.98;61.55;99594.56;5014993;28;45388;-78
2023/01/18 09:29:18;;;;;;;;;32.25;27.50;;;;;3.99;61.47;99583.03;4998885;28;45332;-79
2023/01/18 09:31:43;;;;;;;;;26.75;23.50;;;;;4.01;61.45;99586.47;5016044;28;45635;-78
2023/01/18 09:34:11;;;;;;;;;25.25;22.75;;;;;4.18;61.45;99599.09;5016114;28;46218;-78
2023/01/18 09:36:37;;;;;;;;;33.25;20.50;;;;;4.22;61.30;99602.50;5016431;28;45321;-79
2023/01/18 09:39:04;;;;;;;;;27.25;24.50;;;;;4.25;61.01;99605.06;5016475;28;45380;-79
2023/01/18 09:41:32;;;;;;;;;25.50;20.25;;;;;4.28;60.76;99610.22;5015643;28;45352;-78
2023/01/18 09:44:31;;;;;;;;;27.25;25.50;;;;;4.30;60.84;99606.59;5015301;28;45490;-78
2023/01/18 09:47:11;;;;;;;;;31.25;28.75;;;;;4.34;60.50;99615.31;5015518;28;45363;-78
2023/01/18 09:49:51;;;;;;;;;25.50;21.50;;;;;4.30;60.70;99611.91;5015887;28;45353;-78
2023/01/18 09:52:31;;;;;;;;;29.00;27.50;;;;;4.41;61.16;99627.41;4997599;28;46413;-78
2023/01/18 09:55:23;;;;;;;;;24.25;19.50;;;;;4.44;60.52;99619.31;5010465;28;45555;-78
2023/01/18 09:58:10;;;;;;;;;24.50;21.25;;;;;4.59;60.02;99639.09;4992255;28;45299;-79
2023/01/18 10:00:41;;;;;;;;;21.50;20.00;;;;;4.56;59.57;99642.72;5016105;28;45388;-79
2023/01/18 10:03:17;;;;;;;;;15.50;14.75;;;;;4.49;59.89;99620.00;5015618;28;45702;-78
2023/01/18 10:06:09;;;;;;;;;16.50;15.75;;;;;4.59;59.61;99641.75;5014440;28;48473;-78
2023/01/18 10:09:05;;;;;;;;;20.50;20.00;;;;;4.54;60.27;99647.22;5014408;28;45282;-77
2023/01/18 10:11:49;;;;;;;;;21.75;16.50;;;;;4.63;59.70;99648.66;5016478;28;45279;-78
2023/01/18 10:14:24;;;;;;;;;23.50;20.50;;;;;4.71;59.82;99649.22;5015964;28;45763;-78
2023/01/18 10:17:00;;;;;;;;;17.00;15.50;;;;;4.54;59.84;99612.72;5016689;28;45598;-78
2023/01/18 10:19:29;;;;;;;;;16.25;14.00;;;;;4.63;59.78;99632.75;5017018;28;45302;-78
2023/01/18 10:22:15;;;;;;;;;10.00;7.00;;;;;4.45;60.00;99615.75;5016467;28;45293;-78
2023/01/18 10:24:46;;;;;;;;;16.75;13.50;;;;;4.69;59.89;99659.91;4997913;28;46594;-77
2023/01/18 10:27:44;;;;;;;;;15.75;12.50;;;;;4.76;59.85;99652.56;5015632;28;46207;-78
2023/01/18 10:30:47;;;;;;;;;21.00;13.00;;;;;4.88;59.85;99658.25;5015821;28;45334;-78
2023/01/18 10:33:41;;;;;;;;;13.50;13.50;;;;;5.01;59.34;99676.38;5015627;28;45557;-77
2023/01/18 10:36:17;;;;;;;;;11.25;11.25;;;;;4.97;59.32;99672.09;4998736;28;46862;-78
2023/01/18 10:38:45;;;;;;;;;15.00;12.25;;;;;5.04;59.68;99676.22;5014685;28;47864;-78
2023/01/18 10:41:19;;;;;;;;;15.25;13.25;;;;;5.09;59.68;99664.50;5015933;28;45333;-77
2023/01/18 10:43:44;;;;;;;;;12.00;12.00;;;;;5.17;59.81;99649.09;5012576;28;45375;-79
2023/01/18 10:46:15;;;;;;;;;11.75;10.00;;;;;5.36;59.17;99667.78;5015601;28;45375;-78
2023/01/18 10:48:48;;;;;;;;;11.25;11.25;;;;;5.42;60.10;99670.22;5013620;28;46011;-78
2023/01/18 10:51:31;;;;;;;;;10.75;10.00;;;;;5.50;59.35;99661.91;4997541;28;45418;-79
2023/01/18 10:53:57;;;;;;;;;13.75;12.75;;;;;5.60;59.16;99668.56;5015607;28;45341;-79
2023/01/18 10:56:26;;;;;;;;;13.75;10.75;;;;;5.64;59.35;99659.50;4998033;28;45861;-78
2023/01/18 10:58:59;;;;;;;;;11.75;11.75;;;;;5.74;58.86;99660.84;5016476;28;46017;-80
2023/01/18 11:01:26;;;;;;;;;14.25;9.00;;;;;5.87;59.07;99651.38;5014617;28;46021;-79
2023/01/18 11:04:06;;;;;;;;;11.50;9.50;;;;;6.01;58.77;99651.69;4999889;28;45277;-78
2023/01/18 11:06:58;;;;;;;;;12.75;10.50;;;;;6.12;58.27;99661.88;5021462;28;45332;-79
2023/01/18 11:09:39;;;;;;;;;9.75;9.75;;;;;6.14;58.11;99661.78;5021200;28;45364;-78
2023/01/18 11:12:37;;;;;;;;;9.00;9.00;;;;;6.11;58.28;99662.78;5021296;28;45426;-79
2023/01/18 11:15:15;;;;;;;;;9.00;9.00;;;;;6.22;58.51;99654.31;5017008;28;45456;-77
2023/01/18 11:17:59;;;;;;;;;5.50;5.50;;;;;6.36;58.06;99646.56;5021019;28;45821;-78
2023/01/18 11:20:42;;;;;;;;;10.00;8.00;;;;;6.57;58.03;99650.00;5019826;28;46881;-78
2023/01/18 11:23:34;;;;;;;;;7.00;7.00;;;;;6.67;56.97;99649.50;5021567;28;45243;-80
2023/01/18 11:26:11;;;;;;;;;9.50;8.25;;;;;6.78;55.92;99635.69;5021893;28;45301;-79
2023/01/18 11:28:50;;;;;;;;;6.25;6.25;;;;;7.70;55.15;99638.16;5020725;28;45313;-78
2023/01/18 11:31:24;;;;;;;;;6.75;5.75;;;;;9.02;51.26;99635.41;5020575;28;45510;-80
2023/01/18 11:33:57;;;;;;;;;6.25;6.25;;;;;10.45;47.46;99630.31;5020243;28;45315;-81
2023/01/18 11:36:52;;;;;;;;;7.00;4.25;;;;;11.77;44.53;99623.38;5021473;28;45312;-79
2023/01/18 11:39:25;;;;;;;;;6.00;6.00;;;;;12.47;42.09;99600.50;4990149;28;47231;-78
2023/01/18 11:42:29;;;;;;;;;3.00;3.00;;;;;13.52;40.86;99611.56;5006279;28;46089;-80
2023/01/18 11:45:14;;;;;;;;;5.25;4.00;;;;;14.56;37.93;99614.19;5018731;28;45641;-81
2023/01/18 11:48:03;;;;;;;;;5.00;5.00;;;;;14.96;38.11;99609.16;5020022;28;45388;-81
2023/01/18 11:50:39;;;;;;;;;6.25;3.75;;;;;14.86;36.87;99609.03;4984554;28;45424;-80
2023/01/18 11:53:34;;;;;;;;;6.75;5.75;;;;;14.46;37.81;99584.41;5019686;28;46168;-80
2023/01/18 11:56:09;;;;;;;;;8.25;6.50;;;;;14.12;39.22;99612.34;5020113;28;45652;-78
2023/01/18 11:58:35;;;;;;;;;7.25;6.50;;;;;13.71;39.85;99623.59;5011727;28;45516;-79
2023/01/18 12:01:12;;;;;;;;;6.25;6.25;;;;;13.04;40.25;99617.88;5027283;28;46504;-81
2023/01/18 12:03:50;;;;;;;;;9.75;6.75;;;;;12.26;40.83;99628.03;5019567;28;46163;-80
2023/01/18 12:06:24;;;;;;;;;4.25;4.25;;;;;11.45;42.87;99627.38;5019330;28;45167;-80
2023/01/18 12:09:08;;;;;;;;;7.25;5.00;;;;;10.67;44.43;99624.44;5019248;28;45392;-80
2023/01/18 12:11:41;;;;;;;;;4.75;4.25;;;;;10.52;44.79;99625.44;5019174;28;45392;-76
2023/01/18 12:14:44;;;;;;;;;5.75;4.25;;;;;9.94;45.15;99593.38;5019025;28;46192;-78
2023/01/18 12:17:33;;;;;;;;;7.50;5.25;;;;;9.96;46.30;99626.25;5007497;28;45461;-79
2023/01/18 12:20:36;;;;;;;;;7.25;3.00;;;;;9.83;45.93;99620.78;4998915;28;45411;-80
2023/01/18 12:23:21;;;;;;;;;3.00;3.00;;;;;9.61;46.26;99626.53;5009053;28;46052;-80
2023/01/18 12:25:55;;;;;;;;;3.75;3.75;;;;;9.46;46.64;99627.47;5016587;28;46173;-81
2023/01/18 12:29:01;;;;;;;;;3.25;3.25;;;;;9.05;47.58;99600.47;5015734;28;45542;-78
2023/01/18 12:31:48;;;;;;;;;3.00;3.00;;;;;9.13;48.45;99616.94;5015964;28;45326;-79
2023/01/18 12:34:25;;;;;;;;;4.50;4.50;;;;;8.97;47.97;99640.16;5005003;28;45495;-78
2023/01/18 12:37:29;;;;;;;;;6.00;6.00;;;;;8.83;48.64;99632.06;5016624;28;46745;-80
2023/01/18 12:40:34;;;;;;;;;4.25;4.25;;;;;8.63;48.15;99634.03;5017225;28;45557;-78
2023/01/18 12:43:35;;;;;;;;;2.00;2.00;;;;;8.29;49.30;99613.63;5005446;28;45425;-74
2023/01/18 12:46:03;;;;;;;;;5.25;3.00;;;;;8.28;49.37;99622.59;4996675;28;45532;-75
2023/01/18 12:48:30;;;;;;;;;6.50;3.00;;;;;8.16;49.26;99631.28;5012932;28;48255;-74
2023/01/18 12:50:59;;;;;;;;;4.00;3.00;;;;;8.10;49.74;99628.91;5016162;28;45312;-75
2023/01/18 12:53:36;;;;;;;;;2.75;2.00;;;;;7.86;50.12;99633.75;4999625;28;45529;-75
2023/01/18 12:56:12;;;;;;;;;2.50;2.50;;;;;7.74;50.11;99639.72;4998836;28;45826;-75
2023/01/18 12:58:39;;;;;;;;;3.50;3.50;;;;;7.59;50.49;99628.03;5016703;28;46178;-74
2023/01/18 13:01:10;;;;;;;;;3.00;3.00;;;;;7.64;50.52;99643.81;5015819;28;45411;-77
2023/01/18 13:03:43;;;;;;;;;2.75;2.75;;;;;7.56;50.65;99625.53;5016254;28;45501;-76
2023/01/18 13:06:10;;;;;;;;;5.00;5.00;;;;;7.62;51.40;99628.81;4998025;28;45444;-77
2023/01/18 13:08:41;;;;;;;;;2.00;2.00;;;;;7.69;50.15;99638.22;5015805;28;45395;-77
2023/01/18 13:11:16;;;;;;;;;5.00;3.00;;;;;7.68;50.28;99650.69;5016005;28;45467;-76
2023/01/18 13:13:46;;;;;;;;;1.00;1.00;;;;;7.66;50.06;99635.72;4998151;28;45377;-78
2023/01/18 13:16:32;;;;;;;;;4.25;2.00;;;;;7.67;50.88;99640.97;5015663;28;45404;-73
2023/01/18 13:19:04;;;;;;;;;1.75;1.75;;;;;7.61;50.25;99654.63;5015567;28;46904;-76
2023/01/18 13:21:35;;;;;;;;;1.25;1.25;;;;;7.56;50.19;99652.22;5015540;28;45360;-74
2023/01/18 13:24:21;;;;;;;;;2.00;2.00;;;;;7.47;50.83;99644.69;5015960;28;45421;-75
2023/01/18 13:26:47;;;;;;;;;1.75;1.75;;;;;7.38;51.33;99634.47;5015266;28;45591;-75
2023/01/18 13:29:12;;;;;;;;;1.25;1.00;;;;;7.54;51.06;99645.22;5014213;28;45450;-76
2023/01/18 13:31:38;;;;;;;;;2.00;1.00;;;;;7.56;50.50;99632.69;5014724;28;45394;-75
2023/01/18 13:34:27;;;;;;;;;1.00;1.00;;;;;7.60;49.98;99640.44;5014025;28;45575;-76
2023/01/18 13:36:53;;;;;;;;;1.00;1.00;;;;;7.64;50.13;99643.81;5009251;28;45434;-76
2023/01/18 13:39:20;;;;;;;;;0.75;0.75;;;;;7.54;50.33;99655.88;5001423;28;45578;-76
2023/01/18 13:42:08;;;;;;;;;2.00;2.00;;;;;7.52;50.61;99652.44;5005909;28;45345;-77
2023/01/18 13:44:43;;;;;;;;;1.00;1.00;;;;;7.59;50.94;99657.38;5009441;28;45494;-75
2023/01/18 13:47:38;;;;;;;;;3.00;1.00;;;;;7.71;50.64;99655.91;5015005;28;45518;-75
2023/01/18 13:50:38;;;;;;;;;3.00;1.00;;;;;7.84;50.42;99651.63;5009456;28;46419;-75
2023/01/18 13:53:13;;;;;;;;;1.00;1.00;;;;;7.99;50.16;99666.84;5005620;28;45481;-74
2023/01/18 13:55:53;;;;;;;;;2.00;0.50;;;;;8.04;49.77;99671.94;5014753;28;45307;-75
2023/01/18 13:58:26;;;;;;;;;1.25;1.25;;;;;8.09;49.90;99667.22;5015118;28;45382;-75
2023/01/18 14:00:54;;;;;;;;;2.00;1.75;;;;;8.09;50.02;99656.53;5015271;28;46184;-75
2023/01/18 14:03:28;;;;;;;;;2.00;2.00;;;;;8.30;49.67;99679.44;5014816;28;45392;-78
2023/01/18 14:05:55;;;;;;;;;2.00;2.00;;;;;8.26;49.94;99671.66;4998124;28;45239;-75
2023/01/18 14:08:26;;;;;;;;;5.00;5.00;;;;;8.25;49.91;99670.78;5014047;28;45600;-76
2023/01/18 14:10:58;;;;;;;;;3.75;2.00;;;;;8.28;50.56;99683.13;5015742;28;46079;-77
2023/01/18 14:13:46;;;;;;;;;5.50;2.00;;;;;8.39;50.22;99685.25;4996548;28;45396;-75
2023/01/18 14:16:16;;;;;;;;;1.75;1.75;;;;;8.50;50.51;99701.59;5014881;28;45381;-75
2023/01/18 14:19:02;;;;;;;;;2.00;0.25;;;;;8.39;49.90;99706.63;5001990;28;45581;-74
2023/01/18 14:21:52;;;;;;;;;1.75;0.50;;;;;8.29;50.97;99703.56;5014093;28;46046;-77
2023/01/18 14:24:35;;;;;;;;;1.50;1.50;;;;;8.30;51.33;99706.16;5014407;28;45557;-76
2023/01/18 14:27:02;;;;;;;;;4.75;2.00;;;;;8.35;51.23;99698.78;5003821;28;45362;-74
2023/01/18 14:29:46;;;;;;;;;2.75;1.75;;;;;8.50;50.75;99713.13;5012866;28;45533;-74
2023/01/18 14:32:24;;;;;;;;;3.25;2.00;;;;;8.65;50.58;99720.31;5015410;28;45344;-75
2023/01/18 14:35:02;;;;;;;;;2.00;2.00;;;;;8.66;49.37;99716.69;5014342;28;45559;-76
2023/01/18 14:37:31;;;;;;;;;5.00;3.00;;;;;8.70;50.11;99723.59;5014086;28;45721;-74
2023/01/18 14:40:26;;;;;;;;;0.50;0.50;;;;;8.75;49.48;99712.66;5013736;28;45365;-74
2023/01/18 14:42:55;;;;;;;;;1.25;1.25;;;;;8.69;49.98;99715.66;5013504;28;45302;-74
2023/01/18 14:45:31;;;;;;;;;2.00;2.00;;;;;8.71;49.92;99724.44;5014147;28;45345;-74
2023/01/18 14:48:00;;;;;;;;;1.25;1.25;;;;;8.81;49.82;99723.00;5014746;28;45409;-76
2023/01/18 14:50:31;;;;;;;;;5.25;3.00;;;;;8.70;49.74;99715.56;5009373;28;45323;-75
2023/01/18 14:52:57;;;;;;;;;2.00;2.00;;;;;8.73;50.09;99736.78;5014432;28;45498;-76
2023/01/18 14:55:30;;;;;;;;;3.00;2.00;;;;;8.67;50.21;99736.25;5012868;28;45496;-74
2023/01/18 14:58:14;;;;;;;;;1.00;1.00;;;;;8.58;50.95;99734.97;5014288;28;45303;-75
2023/01/18 15:00:52;;;;;;;;;3.25;3.25;;;;;8.32;51.34;99712.31;5014252;28;45542;-74
2023/01/18 15:03:25;;;;;;;;;6.75;3.75;;;;;8.46;50.87;99740.94;5014406;28;46193;-74
2023/01/18 15:05:57;;;;;;;;;3.00;3.00;;;;;8.35;51.47;99729.94;5014329;28;45309;-76
2023/01/18 15:08:25;;;;;;;;;1.00;1.00;;;;;8.33;51.00;99737.22;5014420;28;45477;-75
2023/01/18 15:10:51;;;;;;;;;3.00;3.00;;;;;8.25;50.98;99740.22;5014525;28;45623;-75
2023/01/18 15:13:17;;;;;;;;;2.00;1.00;;;;;8.25;51.59;99734.03;5013990;28;46265;-75
2023/01/18 15:15:43;;;;;;;;;2.50;2.00;;;;;8.13;51.80;99742.69;5014270;28;45320;-75
2023/01/18 15:18:17;;;;;;;;;2.50;2.00;;;;;8.11;52.12;99742.75;5014344;28;45274;-74
2023/01/18 15:20:58;;;;;;;;;4.00;2.00;;;;;8.02;52.04;99751.22;5014181;28;45508;-76
2023/01/18 15:23:25;;;;;;;;;1.00;1.00;;;;;7.97;52.41;99747.94;5009470;28;48031;-74
2023/01/18 15:25:52;;;;;;;;;2.00;1.00;;;;;7.93;52.62;99754.38;5014371;28;45410;-77
2023/01/18 15:28:18;;;;;;;;;2.00;2.00;;;;;7.89;52.67;99742.13;5014184;28;45428;-75
2023/01/18 15:30:50;;;;;;;;;2.50;2.50;;;;;7.92;52.60;99753.50;5012471;28;46561;-75
2023/01/18 15:33:16;;;;;;;;;2.75;2.75;;;;;7.98;52.89;99750.53;5014466;28;46151;-76
2023/01/18 15:35:41;;;;;;;;;1.75;1.75;;;;;7.89;52.83;99760.81;5013861;28;45476;-75
2023/01/18 15:38:09;;;;;;;;;3.50;3.00;;;;;7.68;53.30;99741.41;5014221;28;45258;-75
2023/01/18 15:40:39;;;;;;;;;6.50;3.00;;;;;7.76;53.93;99763.22;5014187;28;45531;-76
2023/01/18 15:43:16;;;;;;;;;5.00;1.00;;;;;7.72;53.62;99767.00;5000645;28;45661;-75
2023/01/18 15:45:48;;;;;;;;;5.75;2.00;;;;;7.72;53.81;99767.00;5013849;28;45506;-75
2023/01/18 15:48:16;;;;;;;;;3.00;3.00;;;;;7.52;54.73;99761.78;4993905;28;45349;-75
2023/01/18 15:50:46;;;;;;;;;3.00;3.00;;;;;7.44;54.77;99769.28;5011809;28;45316;-75
2023/01/18 15:53:36;;;;;;;;;2.75;2.75;;;;;7.36;54.79;99766.13;5018703;28;45314;-74
2023/01/18 15:56:05;;;;;;;;;4.00;4.00;;;;;7.43;54.84;99781.75;5001518;28;45535;-77
2023/01/18 15:58:48;;;;;;;;;3.00;3.00;;;;;7.26;56.07;99778.16;5017247;28;45337;-74
2023/01/18 16:01:23;;;;;;;;;5.25;4.00;;;;;7.23;55.99;99782.69;5017264;28;45445;-77
2023/01/18 16:03:48;;;;;;;;;5.50;2.75;;;;;7.33;55.74;99784.94;5017014;28;46085;-77
2023/01/18 16:06:31;;;;;;;;;5.25;3.00;;;;;7.08;56.50;99788.75;4999320;28;45396;-78
2023/01/18 16:09:08;;;;;;;;;3.00;3.00;;;;;7.07;57.21;99786.16;5017134;28;45432;-77
2023/01/18 16:11:39;;;;;;;;;6.75;3.00;;;;;7.00;57.52;99777.59;5016703;28;45527;-77
2023/01/18 16:14:24;;;;;;;;;5.25;3.50;;;;;7.02;57.44;99788.19;5017432;28;46233;-75
2023/01/18 16:16:51;;;;;;;;;5.00;5.00;;;;;7.10;57.28;99792.22;5017291;28;45311;-78
2023/01/18 16:19:28;;;;;;;;;2.75;2.75;;;;;7.19;57.55;99798.94;5017487;28;45371;-74
2023/01/18 16:22:01;;;;;;;;;2.25;2.25;;;;;7.20;57.61;99801.53;5017055;28;45258;-75
2023/01/18 16:24:32;;;;;;;;;3.00;3.00;;;;;7.14;58.50;99811.63;4998547;28;47003;-75
2023/01/18 16:27:06;;;;;;;;;5.75;4.00;;;;;7.05;58.83;99812.03;5016538;28;45278;-75
2023/01/18 16:29:45;;;;;;;;;5.50;5.25;;;;;6.98;59.76;99813.22;5016531;28;45508;-73
2023/01/18 16:32:28;;;;;;;;;8.25;3.50;;;;;6.93;59.91;99817.91;5015150;28;45286;-76
2023/01/18 16:34:55;;;;;;;;;5.50;2.00;;;;;7.00;59.63;99819.38;5016793;28;45538;-75
2023/01/18 16:37:21;;;;;;;;;3.00;3.00;;;;;7.02;59.22;99806.84;5016405;28;45495;-75
2023/01/18 16:39:46;;;;;;;;;6.75;5.75;;;;;7.17;59.30;99822.97;5016710;28;45426;-75
2023/01/18 16:42:12;;;;;;;;;3.00;3.00;;;;;7.09;59.28;99808.28;5020950;28;45239;-74
2023/01/18 16:44:41;;;;;;;;;6.25;5.75;;;;;7.13;59.61;99820.53;5015094;28;45470;-76
2023/01/18 16:47:12;;;;;;;;;6.00;6.00;;;;;7.05;60.37;99839.56;5016841;28;45229;-73
2023/01/18 16:49:39;;;;;;;;;9.50;4.50;;;;;6.97;60.93;99846.16;5008019;28;45548;-76
2023/01/18 16:52:07;;;;;;;;;3.00;3.00;;;;;6.80;61.99;99854.94;4998589;28;45429;-74
2023/01/18 16:54:32;;;;;;;;;2.75;1.75;;;;;6.64;62.81;99856.50;5015802;28;46289;-75
2023/01/18 16:56:57;;;;;;;;;1.00;1.00;;;;;6.75;62.67;99862.22;5016198;28;45402;-75
2023/01/18 16:59:23;;;;;;;;;2.50;1.00;;;;;6.74;63.05;99865.81;5016620;28;45408;-77
2023/01/18 17:01:50;;;;;;;;;2.00;2.00;;;;;6.74;62.52;99858.72;5015654;28;45329;-76
2023/01/18 17:04:16;;;;;;;;;3.00;2.00;;;;;6.77;62.94;99863.03;5016497;28;46625;-75
2023/01/18 17:06:42;;;;;;;;;1.00;1.00;;;;;6.69;63.03;99863.38;5016537;28;45638;-75
2023/01/18 17:09:28;;;;;;;;;2.50;2.00;;;;;6.69;63.45;99874.03;5016331;28;45351;-75
2023/01/18 17:11:54;;;;;;;;;2.50;2.00;;;;;6.77;63.59;99882.56;5015353;28;45570;-72
2023/01/18 17:14:20;;;;;;;;;1.75;1.75;;;;;6.78;63.43;99870.09;4998019;28;46104;-74
2023/01/18 17:16:47;;;;;;;;;2.00;2.00;;;;;6.61;63.60;99870.84;5014509;28;45474;-74
2023/01/18 17:19:15;;;;;;;;;2.00;2.00;;;;;6.64;63.82;99885.81;5016173;28;45344;-72
2023/01/18 17:21:41;;;;;;;;;2.25;2.25;;;;;6.73;63.93;99893.41;5015598;28;45442;-73
2023/01/18 17:24:08;;;;;;;;;3.00;2.00;;;;;6.64;63.74;99892.00;5015450;28;45477;-74
2023/01/18 17:26:34;;;;;;;;;2.00;2.00;;;;;6.64;63.53;99889.34;5013894;28;45427;-74
2023/01/18 17:29:00;;;;;;;;;4.25;2.00;;;;;6.70;64.13;99901.53;5015405;28;45432;-73